sensor_id;sensor_type;location;lat;lon;timestamp;P1;durP1;ratioP1;P2;durP2;ratioP2
27127;SDS011;14660;49.008;8.390;2022-07-23T00:01:33;11.93;;;10.73;;
27127;SDS011;14660;49.008;8.390;2022-07-23T00:04:00;12.73;;;10.65;;
27127;SDS011;14660;49.008;8.390;2022-07-23T00:06:27;12.05;;;10.82;;
27127;SDS011;14660;49.008;8.390;2022-07-23T00:08:54;11.65;;;10.32;;
27127;SDS011;14660;49.008;8.390;2022-07-23T00:11:21;11.18;;;10.07;;
27127;SDS011;14660;49.008;8.390;2022-07-23T00:13:48;11.52;;;9.95;;
27127;SDS011;14660;49.008;8.390;2022-07-23T00:16:15;10.93;;;9.93;;
27127;SDS011;14660;49.008;8.390;2022-07-23T00:18:42;11.45;;;10.32;;
27127;SDS011;14660;49.008;8.390;2022-07-23T00:21:09;11.00;;;9.88;;
27127;SDS011;14660;49.008;8.390;2022-07-23T00:23:37;11.63;;;10.35;;
27127;SDS011;14660;49.008;8.390;2022-07-23T00:26:04;11.98;;;10.77;;
27127;SDS011;14660;49.008;8.390;2022-07-23T00:28:34;15.25;;;11.00;;
27127;SDS011;14660;49.008;8.390;2022-07-23T00:31:01;11.57;;;10.10;;
27127;SDS011;14660;49.008;8.390;2022-07-23T00:33:28;13.20;;;9.95;;
27127;SDS011;14660;49.008;8.390;2022-07-23T00:35:55;10.73;;;9.65;;
27127;SDS011;14660;49.008;8.390;2022-07-23T00:38:22;10.32;;;9.40;;
27127;SDS011;14660;49.008;8.390;2022-07-23T00:40:48;14.40;;;9.73;;
27127;SDS011;14660;49.008;8.390;2022-07-23T00:43:15;11.07;;;9.25;;
27127;SDS011;14660;49.008;8.390;2022-07-23T00:45:42;10.80;;;9.52;;
27127;SDS011;14660;49.008;8.390;2022-07-23T00:48:09;10.25;;;8.63;;
27127;SDS011;14660;49.008;8.390;2022-07-23T00:50:36;11.15;;;9.65;;
27127;SDS011;14660;49.008;8.390;2022-07-23T00:53:03;9.88;;;8.85;;
27127;SDS011;14660;49.008;8.390;2022-07-23T00:55:30;13.07;;;9.55;;
27127;SDS011;14660;49.008;8.390;2022-07-23T00:57:58;10.90;;;8.82;;
27127;SDS011;14660;49.008;8.390;2022-07-23T01:00:26;9.82;;;8.50;;
27127;SDS011;14660;49.008;8.390;2022-07-23T01:02:53;9.90;;;8.90;;
27127;SDS011;14660;49.008;8.390;2022-07-23T01:05:20;8.95;;;8.15;;
27127;SDS011;14660;49.008;8.390;2022-07-23T01:07:51;11.77;;;9.65;;
27127;SDS011;14660;49.008;8.390;2022-07-23T01:10:18;10.70;;;8.50;;
27127;SDS011;14660;49.008;8.390;2022-07-23T01:12:59;9.63;;;7.90;;
27127;SDS011;14660;49.008;8.390;2022-07-23T01:15:32;11.30;;;9.23;;
27127;SDS011;14660;49.008;8.390;2022-07-23T01:18:00;9.55;;;8.65;;
27127;SDS011;14660;49.008;8.390;2022-07-23T01:20:27;10.50;;;8.02;;
27127;SDS011;14660;49.008;8.390;2022-07-23T01:22:54;8.40;;;7.60;;
27127;SDS011;14660;49.008;8.390;2022-07-23T01:25:22;8.95;;;8.05;;
27127;SDS011;14660;49.008;8.390;2022-07-23T01:27:49;11.30;;;9.35;;
27127;SDS011;14660;49.008;8.390;2022-07-23T01:30:18;9.23;;;8.32;;
27127;SDS011;14660;49.008;8.390;2022-07-23T01:32:45;9.88;;;8.63;;
27127;SDS011;14660;49.008;8.390;2022-07-23T01:35:12;9.85;;;8.45;;
27127;SDS011;14660;49.008;8.390;2022-07-23T01:37:39;10.75;;;8.63;;
27127;SDS011;14660;49.008;8.390;2022-07-23T01:40:05;10.07;;;8.85;;
27127;SDS011;14660;49.008;8.390;2022-07-23T01:42:33;10.82;;;9.18;;
27127;SDS011;14660;49.008;8.390;2022-07-23T01:45:00;12.75;;;8.13;;
27127;SDS011;14660;49.008;8.390;2022-07-23T01:47:26;8.82;;;7.75;;
27127;SDS011;14660;49.008;8.390;2022-07-23T01:49:53;10.82;;;8.23;;
27127;SDS011;14660;49.008;8.390;2022-07-23T01:52:20;9.60;;;7.93;;
27127;SDS011;14660;49.008;8.390;2022-07-23T01:54:47;10.40;;;9.32;;
27127;SDS011;14660;49.008;8.390;2022-07-23T01:57:14;9.02;;;8.13;;
27127;SDS011;14660;49.008;8.390;2022-07-23T01:59:41;10.88;;;8.43;;
27127;SDS011;14660;49.008;8.390;2022-07-23T02:02:07;8.20;;;7.25;;
27127;SDS011;14660;49.008;8.390;2022-07-23T02:04:34;10.70;;;7.68;;
27127;SDS011;14660;49.008;8.390;2022-07-23T02:07:03;7.78;;;7.07;;
27127;SDS011;14660;49.008;8.390;2022-07-23T02:09:30;8.52;;;7.80;;
27127;SDS011;14660;49.008;8.390;2022-07-23T02:11:58;8.48;;;7.25;;
27127;SDS011;14660;49.008;8.390;2022-07-23T02:14:25;8.57;;;7.00;;
27127;SDS011;14660;49.008;8.390;2022-07-23T02:16:54;8.68;;;7.53;;
27127;SDS011;14660;49.008;8.390;2022-07-23T02:19:21;8.50;;;7.15;;
27127;SDS011;14660;49.008;8.390;2022-07-23T02:21:48;8.95;;;7.53;;
27127;SDS011;14660;49.008;8.390;2022-07-23T02:24:15;8.45;;;7.55;;
27127;SDS011;14660;49.008;8.390;2022-07-23T02:26:42;7.72;;;6.93;;
27127;SDS011;14660;49.008;8.390;2022-07-23T02:29:09;8.23;;;7.38;;
27127;SDS011;14660;49.008;8.390;2022-07-23T02:31:36;8.13;;;6.95;;
27127;SDS011;14660;49.008;8.390;2022-07-23T02:34:03;11.52;;;6.75;;
27127;SDS011;14660;49.008;8.390;2022-07-23T02:36:30;7.80;;;7.03;;
27127;SDS011;14660;49.008;8.390;2022-07-23T02:38:57;8.65;;;6.80;;
27127;SDS011;14660;49.008;8.390;2022-07-23T02:41:24;9.02;;;7.15;;
27127;SDS011;14660;49.008;8.390;2022-07-23T02:43:51;9.00;;;7.03;;
27127;SDS011;14660;49.008;8.390;2022-07-23T02:46:17;7.63;;;6.93;;
27127;SDS011;14660;49.008;8.390;2022-07-23T02:48:44;9.65;;;6.50;;
27127;SDS011;14660;49.008;8.390;2022-07-23T02:51:11;10.05;;;7.32;;
27127;SDS011;14660;49.008;8.390;2022-07-23T02:53:37;6.22;;;5.63;;
27127;SDS011;14660;49.008;8.390;2022-07-23T02:56:04;7.05;;;5.90;;
27127;SDS011;14660;49.008;8.390;2022-07-23T02:58:31;7.18;;;6.28;;
27127;SDS011;14660;49.008;8.390;2022-07-23T03:00:58;6.38;;;5.78;;
27127;SDS011;14660;49.008;8.390;2022-07-23T03:03:25;7.57;;;6.78;;
27127;SDS011;14660;49.008;8.390;2022-07-23T03:05:52;8.23;;;6.25;;
27127;SDS011;14660;49.008;8.390;2022-07-23T03:08:18;8.15;;;6.70;;
27127;SDS011;14660;49.008;8.390;2022-07-23T03:10:45;7.10;;;6.03;;
27127;SDS011;14660;49.008;8.390;2022-07-23T03:13:11;7.00;;;6.05;;
27127;SDS011;14660;49.008;8.390;2022-07-23T03:15:38;6.78;;;6.05;;
27127;SDS011;14660;49.008;8.390;2022-07-23T03:18:05;8.80;;;6.28;;
27127;SDS011;14660;49.008;8.390;2022-07-23T03:20:32;6.57;;;5.75;;
27127;SDS011;14660;49.008;8.390;2022-07-23T03:22:59;7.68;;;6.32;;
27127;SDS011;14660;49.008;8.390;2022-07-23T03:25:26;8.55;;;6.22;;
27127;SDS011;14660;49.008;8.390;2022-07-23T03:27:53;8.00;;;6.32;;
27127;SDS011;14660;49.008;8.390;2022-07-23T03:30:18;7.15;;;6.15;;
27127;SDS011;14660;49.008;8.390;2022-07-23T03:32:45;6.78;;;6.05;;
27127;SDS011;14660;49.008;8.390;2022-07-23T03:35:12;6.68;;;5.97;;
27127;SDS011;14660;49.008;8.390;2022-07-23T03:37:39;8.48;;;6.43;;
27127;SDS011;14660;49.008;8.390;2022-07-23T03:40:05;9.13;;;6.65;;
27127;SDS011;14660;49.008;8.390;2022-07-23T03:42:32;6.53;;;5.90;;
27127;SDS011;14660;49.008;8.390;2022-07-23T03:44:59;7.47;;;5.78;;
27127;SDS011;14660;49.008;8.390;2022-07-23T03:47:27;7.72;;;6.40;;
27127;SDS011;14660;49.008;8.390;2022-07-23T03:49:54;6.93;;;6.10;;
27127;SDS011;14660;49.008;8.390;2022-07-23T03:52:21;9.10;;;6.10;;
27127;SDS011;14660;49.008;8.390;2022-07-23T03:54:48;7.18;;;6.28;;
27127;SDS011;14660;49.008;8.390;2022-07-23T03:57:15;9.88;;;7.07;;
27127;SDS011;14660;49.008;8.390;2022-07-23T03:59:41;8.02;;;5.93;;
27127;SDS011;14660;49.008;8.390;2022-07-23T04:02:08;6.72;;;5.60;;
27127;SDS011;14660;49.008;8.390;2022-07-23T04:04:35;8.00;;;6.35;;
27127;SDS011;14660;49.008;8.390;2022-07-23T04:07:02;8.23;;;6.63;;
27127;SDS011;14660;49.008;8.390;2022-07-23T04:09:29;7.53;;;5.70;;
27127;SDS011;14660;49.008;8.390;2022-07-23T04:11:56;6.65;;;6.05;;
27127;SDS011;14660;49.008;8.390;2022-07-23T04:14:23;12.52;;;6.63;;
27127;SDS011;14660;49.008;8.390;2022-07-23T04:16:49;6.97;;;6.28;;
27127;SDS011;14660;49.008;8.390;2022-07-23T04:19:16;7.00;;;6.28;;
27127;SDS011;14660;49.008;8.390;2022-07-23T04:21:43;7.32;;;6.07;;
27127;SDS011;14660;49.008;8.390;2022-07-23T04:24:10;6.38;;;5.78;;
27127;SDS011;14660;49.008;8.390;2022-07-23T04:26:36;6.68;;;5.75;;
27127;SDS011;14660;49.008;8.390;2022-07-23T04:29:03;8.32;;;5.88;;
27127;SDS011;14660;49.008;8.390;2022-07-23T04:31:30;6.43;;;5.72;;
27127;SDS011;14660;49.008;8.390;2022-07-23T04:33:56;7.05;;;6.30;;
27127;SDS011;14660;49.008;8.390;2022-07-23T04:36:24;9.65;;;6.28;;
27127;SDS011;14660;49.008;8.390;2022-07-23T04:38:50;8.82;;;6.70;;
27127;SDS011;14660;49.008;8.390;2022-07-23T04:41:18;7.68;;;6.93;;
27127;SDS011;14660;49.008;8.390;2022-07-23T04:43:44;7.55;;;5.65;;
27127;SDS011;14660;49.008;8.390;2022-07-23T04:46:11;9.98;;;6.68;;
27127;SDS011;14660;49.008;8.390;2022-07-23T04:48:38;7.13;;;5.90;;
27127;SDS011;14660;49.008;8.390;2022-07-23T04:51:05;7.82;;;6.60;;
27127;SDS011;14660;49.008;8.390;2022-07-23T04:53:31;9.75;;;6.85;;
27127;SDS011;14660;49.008;8.390;2022-07-23T04:55:59;8.55;;;6.35;;
27127;SDS011;14660;49.008;8.390;2022-07-23T04:58:26;8.68;;;7.10;;
27127;SDS011;14660;49.008;8.390;2022-07-23T05:00:53;10.57;;;6.35;;
27127;SDS011;14660;49.008;8.390;2022-07-23T05:03:19;10.25;;;6.22;;
27127;SDS011;14660;49.008;8.390;2022-07-23T05:05:46;7.75;;;6.78;;
27127;SDS011;14660;49.008;8.390;2022-07-23T05:08:13;8.63;;;6.65;;
27127;SDS011;14660;49.008;8.390;2022-07-23T05:10:40;14.65;;;7.03;;
27127;SDS011;14660;49.008;8.390;2022-07-23T05:13:07;8.35;;;6.65;;
27127;SDS011;14660;49.008;8.390;2022-07-23T05:15:34;7.95;;;6.97;;
27127;SDS011;14660;49.008;8.390;2022-07-23T05:18:00;7.88;;;6.25;;
27127;SDS011;14660;49.008;8.390;2022-07-23T05:20:27;6.85;;;6.25;;
27127;SDS011;14660;49.008;8.390;2022-07-23T05:22:53;7.80;;;6.50;;
27127;SDS011;14660;49.008;8.390;2022-07-23T05:25:20;7.95;;;7.05;;
27127;SDS011;14660;49.008;8.390;2022-07-23T05:27:47;7.50;;;6.68;;
27127;SDS011;14660;49.008;8.390;2022-07-23T05:30:14;7.60;;;6.88;;
27127;SDS011;14660;49.008;8.390;2022-07-23T05:32:41;7.95;;;6.93;;
27127;SDS011;14660;49.008;8.390;2022-07-23T05:35:07;7.95;;;6.70;;
27127;SDS011;14660;49.008;8.390;2022-07-23T05:37:35;8.30;;;6.45;;
27127;SDS011;14660;49.008;8.390;2022-07-23T05:40:05;7.93;;;7.13;;
27127;SDS011;14660;49.008;8.390;2022-07-23T05:42:37;7.70;;;6.65;;
27127;SDS011;14660;49.008;8.390;2022-07-23T05:45:06;7.65;;;6.55;;
27127;SDS011;14660;49.008;8.390;2022-07-23T05:47:43;7.60;;;6.70;;
27127;SDS011;14660;49.008;8.390;2022-07-23T05:50:10;7.63;;;6.88;;
27127;SDS011;14660;49.008;8.390;2022-07-23T05:52:38;7.38;;;6.07;;
27127;SDS011;14660;49.008;8.390;2022-07-23T05:55:06;13.73;;;7.43;;
27127;SDS011;14660;49.008;8.390;2022-07-23T05:57:33;9.68;;;7.63;;
27127;SDS011;14660;49.008;8.390;2022-07-23T06:00:00;7.25;;;6.55;;
27127;SDS011;14660;49.008;8.390;2022-07-23T06:02:28;9.52;;;8.05;;
27127;SDS011;14660;49.008;8.390;2022-07-23T06:04:55;9.55;;;6.97;;
27127;SDS011;14660;49.008;8.390;2022-07-23T06:07:22;8.60;;;7.35;;
27127;SDS011;14660;49.008;8.390;2022-07-23T06:09:49;7.88;;;7.07;;
27127;SDS011;14660;49.008;8.390;2022-07-23T06:12:16;9.98;;;6.70;;
27127;SDS011;14660;49.008;8.390;2022-07-23T06:14:43;7.57;;;6.72;;
27127;SDS011;14660;49.008;8.390;2022-07-23T06:17:10;9.75;;;7.18;;
27127;SDS011;14660;49.008;8.390;2022-07-23T06:19:37;8.45;;;7.40;;
27127;SDS011;14660;49.008;8.390;2022-07-23T06:22:04;9.60;;;7.03;;
27127;SDS011;14660;49.008;8.390;2022-07-23T06:24:30;10.02;;;6.72;;
27127;SDS011;14660;49.008;8.390;2022-07-23T06:26:57;8.32;;;7.53;;
27127;SDS011;14660;49.008;8.390;2022-07-23T06:29:24;8.20;;;6.85;;
27127;SDS011;14660;49.008;8.390;2022-07-23T06:31:50;8.35;;;6.53;;
27127;SDS011;14660;49.008;8.390;2022-07-23T06:34:17;9.40;;;6.50;;
27127;SDS011;14660;49.008;8.390;2022-07-23T06:36:44;9.00;;;8.00;;
27127;SDS011;14660;49.008;8.390;2022-07-23T06:39:11;7.78;;;7.03;;
27127;SDS011;14660;49.008;8.390;2022-07-23T06:41:37;7.75;;;7.03;;
27127;SDS011;14660;49.008;8.390;2022-07-23T06:44:04;9.40;;;7.60;;
27127;SDS011;14660;49.008;8.390;2022-07-23T06:46:31;9.90;;;6.78;;
27127;SDS011;14660;49.008;8.390;2022-07-23T06:48:58;8.32;;;7.20;;
27127;SDS011;14660;49.008;8.390;2022-07-23T06:51:26;9.80;;;7.18;;
27127;SDS011;14660;49.008;8.390;2022-07-23T06:53:53;7.55;;;6.85;;
27127;SDS011;14660;49.008;8.390;2022-07-23T06:56:20;8.70;;;7.70;;
27127;SDS011;14660;49.008;8.390;2022-07-23T06:58:46;9.18;;;7.35;;
27127;SDS011;14660;49.008;8.390;2022-07-23T07:01:13;7.90;;;7.07;;
27127;SDS011;14660;49.008;8.390;2022-07-23T07:03:40;8.27;;;6.95;;
27127;SDS011;14660;49.008;8.390;2022-07-23T07:06:07;8.98;;;7.00;;
27127;SDS011;14660;49.008;8.390;2022-07-23T07:08:34;7.35;;;6.68;;
27127;SDS011;14660;49.008;8.390;2022-07-23T07:11:01;8.32;;;6.68;;
27127;SDS011;14660;49.008;8.390;2022-07-23T07:13:29;8.38;;;7.20;;
27127;SDS011;14660;49.008;8.390;2022-07-23T07:15:56;8.38;;;6.97;;
27127;SDS011;14660;49.008;8.390;2022-07-23T07:18:23;8.70;;;7.15;;
27127;SDS011;14660;49.008;8.390;2022-07-23T07:20:50;9.35;;;7.93;;
27127;SDS011;14660;49.008;8.390;2022-07-23T07:23:17;7.25;;;6.55;;
27127;SDS011;14660;49.008;8.390;2022-07-23T07:25:43;9.98;;;7.07;;
27127;SDS011;14660;49.008;8.390;2022-07-23T07:28:10;7.80;;;6.97;;
27127;SDS011;14660;49.008;8.390;2022-07-23T07:30:37;8.70;;;7.45;;
27127;SDS011;14660;49.008;8.390;2022-07-23T07:33:04;9.05;;;7.53;;
27127;SDS011;14660;49.008;8.390;2022-07-23T07:35:31;9.05;;;7.85;;
27127;SDS011;14660;49.008;8.390;2022-07-23T07:37:59;8.90;;;7.53;;
27127;SDS011;14660;49.008;8.390;2022-07-23T07:40:26;8.27;;;7.38;;
27127;SDS011;14660;49.008;8.390;2022-07-23T07:42:53;8.20;;;7.40;;
27127;SDS011;14660;49.008;8.390;2022-07-23T07:45:20;11.77;;;7.72;;
27127;SDS011;14660;49.008;8.390;2022-07-23T07:47:48;8.95;;;7.68;;
27127;SDS011;14660;49.008;8.390;2022-07-23T07:50:15;8.70;;;7.85;;
27127;SDS011;14660;49.008;8.390;2022-07-23T07:52:42;8.90;;;7.72;;
27127;SDS011;14660;49.008;8.390;2022-07-23T07:55:09;8.32;;;7.45;;
27127;SDS011;14660;49.008;8.390;2022-07-23T07:57:37;8.88;;;7.43;;
27127;SDS011;14660;49.008;8.390;2022-07-23T08:00:05;10.45;;;8.45;;
27127;SDS011;14660;49.008;8.390;2022-07-23T08:02:41;10.40;;;8.00;;
27127;SDS011;14660;49.008;8.390;2022-07-23T08:05:12;8.88;;;7.97;;
27127;SDS011;14660;49.008;8.390;2022-07-23T08:07:40;11.60;;;7.97;;
27127;SDS011;14660;49.008;8.390;2022-07-23T08:10:08;8.98;;;7.90;;
27127;SDS011;14660;49.008;8.390;2022-07-23T08:15:23;9.25;;;6.88;;
27127;SDS011;14660;49.008;8.390;2022-07-23T08:17:52;11.45;;;7.55;;
27127;SDS011;14660;49.008;8.390;2022-07-23T08:20:20;8.45;;;7.50;;
27127;SDS011;14660;49.008;8.390;2022-07-23T08:25:34;11.82;;;7.95;;
27127;SDS011;14660;49.008;8.390;2022-07-23T08:28:07;8.98;;;8.07;;
27127;SDS011;14660;49.008;8.390;2022-07-23T08:30:36;13.38;;;8.98;;
27127;SDS011;14660;49.008;8.390;2022-07-23T08:33:04;10.50;;;7.97;;
27127;SDS011;14660;49.008;8.390;2022-07-23T08:35:49;10.07;;;8.43;;
27127;SDS011;14660;49.008;8.390;2022-07-23T08:38:17;8.75;;;7.85;;
27127;SDS011;14660;49.008;8.390;2022-07-23T08:40:51;11.50;;;8.52;;
27127;SDS011;14660;49.008;8.390;2022-07-23T08:43:20;8.80;;;7.93;;
27127;SDS011;14660;49.008;8.390;2022-07-23T08:45:49;12.07;;;8.43;;
27127;SDS011;14660;49.008;8.390;2022-07-23T08:51:03;9.98;;;7.75;;
27127;SDS011;14660;49.008;8.390;2022-07-23T08:53:30;9.93;;;8.20;;
27127;SDS011;14660;49.008;8.390;2022-07-23T08:56:00;8.75;;;7.95;;
27127;SDS011;14660;49.008;8.390;2022-07-23T08:58:28;9.23;;;8.32;;
27127;SDS011;14660;49.008;8.390;2022-07-23T09:00:55;8.35;;;7.55;;
27127;SDS011;14660;49.008;8.390;2022-07-23T09:03:24;12.95;;;8.25;;
27127;SDS011;14660;49.008;8.390;2022-07-23T09:05:55;9.50;;;8.60;;
27127;SDS011;14660;49.008;8.390;2022-07-23T09:08:24;9.00;;;8.07;;
27127;SDS011;14660;49.008;8.390;2022-07-23T09:11:02;8.55;;;7.75;;
27127;SDS011;14660;49.008;8.390;2022-07-23T09:19:06;9.25;;;8.32;;
27127;SDS011;14660;49.008;8.390;2022-07-23T09:21:37;9.02;;;8.13;;
27127;SDS011;14660;49.008;8.390;2022-07-23T09:26:49;8.88;;;7.70;;
27127;SDS011;14660;49.008;8.390;2022-07-23T09:32:02;8.80;;;7.90;;
27127;SDS011;14660;49.008;8.390;2022-07-23T09:37:17;10.50;;;8.60;;
27127;SDS011;14660;49.008;8.390;2022-07-23T09:39:45;8.93;;;8.13;;
27127;SDS011;14660;49.008;8.390;2022-07-23T09:45:00;9.65;;;8.73;;
27127;SDS011;14660;49.008;8.390;2022-07-23T09:47:27;9.60;;;7.78;;
27127;SDS011;14660;49.008;8.390;2022-07-23T09:55:30;9.00;;;8.20;;
27127;SDS011;14660;49.008;8.390;2022-07-23T09:58:01;8.07;;;7.22;;
27127;SDS011;14660;49.008;8.390;2022-07-23T10:00:29;7.97;;;6.88;;
27127;SDS011;14660;49.008;8.390;2022-07-23T10:02:58;11.32;;;8.05;;
27127;SDS011;14660;49.008;8.390;2022-07-23T10:05:25;8.63;;;7.72;;
27127;SDS011;14660;49.008;8.390;2022-07-23T10:07:56;9.48;;;7.93;;
27127;SDS011;14660;49.008;8.390;2022-07-23T10:10:25;11.57;;;7.55;;
27127;SDS011;14660;49.008;8.390;2022-07-23T10:12:56;8.63;;;7.82;;
27127;SDS011;14660;49.008;8.390;2022-07-23T10:17:56;9.95;;;8.43;;
27127;SDS011;14660;49.008;8.390;2022-07-23T10:20:23;8.88;;;7.97;;
27127;SDS011;14660;49.008;8.390;2022-07-23T10:22:59;9.35;;;7.20;;
27127;SDS011;14660;49.008;8.390;2022-07-23T10:28:38;10.65;;;7.57;;
27127;SDS011;14660;49.008;8.390;2022-07-23T10:34:53;9.07;;;8.18;;
27127;SDS011;14660;49.008;8.390;2022-07-23T10:37:49;9.73;;;8.75;;
27127;SDS011;14660;49.008;8.390;2022-07-23T10:40:20;9.23;;;8.38;;
27127;SDS011;14660;49.008;8.390;2022-07-23T10:42:50;9.57;;;8.68;;
27127;SDS011;14660;49.008;8.390;2022-07-23T10:53:57;9.23;;;8.40;;
27127;SDS011;14660;49.008;8.390;2022-07-23T10:59:27;9.60;;;8.70;;
27127;SDS011;14660;49.008;8.390;2022-07-23T11:01:54;10.27;;;9.32;;
27127;SDS011;14660;49.008;8.390;2022-07-23T11:04:49;8.82;;;7.32;;
27127;SDS011;14660;49.008;8.390;2022-07-23T11:07:17;8.93;;;7.43;;
27127;SDS011;14660;49.008;8.390;2022-07-23T11:09:45;10.10;;;7.90;;
27127;SDS011;14660;49.008;8.390;2022-07-23T11:20:29;8.70;;;7.90;;
27127;SDS011;14660;49.008;8.390;2022-07-23T11:22:57;9.40;;;7.50;;
27127;SDS011;14660;49.008;8.390;2022-07-23T11:28:17;8.70;;;7.88;;
27127;SDS011;14660;49.008;8.390;2022-07-23T11:30:47;9.30;;;8.40;;
27127;SDS011;14660;49.008;8.390;2022-07-23T11:36:03;8.20;;;7.40;;
27127;SDS011;14660;49.008;8.390;2022-07-23T11:38:30;9.15;;;8.23;;
27127;SDS011;14660;49.008;8.390;2022-07-23T11:40:58;8.63;;;7.72;;
27127;SDS011;14660;49.008;8.390;2022-07-23T11:43:25;8.80;;;7.90;;
27127;SDS011;14660;49.008;8.390;2022-07-23T11:45:53;9.52;;;8.55;;
27127;SDS011;14660;49.008;8.390;2022-07-23T11:48:25;8.32;;;7.55;;
27127;SDS011;14660;49.008;8.390;2022-07-23T11:50:55;10.68;;;8.75;;
27127;SDS011;14660;49.008;8.390;2022-07-23T11:53:25;10.68;;;8.52;;
27127;SDS011;14660;49.008;8.390;2022-07-23T11:56:07;8.63;;;7.85;;
27127;SDS011;14660;49.008;8.390;2022-07-23T11:58:36;9.50;;;8.50;;
27127;SDS011;14660;49.008;8.390;2022-07-23T12:01:04;9.15;;;8.25;;
27127;SDS011;14660;49.008;8.390;2022-07-23T12:03:31;9.75;;;8.60;;
27127;SDS011;14660;49.008;8.390;2022-07-23T12:05:59;9.13;;;8.23;;
27127;SDS011;14660;49.008;8.390;2022-07-23T12:08:26;10.65;;;8.75;;
27127;SDS011;14660;49.008;8.390;2022-07-23T12:10:53;9.43;;;8.52;;
27127;SDS011;14660;49.008;8.390;2022-07-23T12:13:20;9.45;;;8.52;;
27127;SDS011;14660;49.008;8.390;2022-07-23T12:15:50;9.25;;;8.25;;
27127;SDS011;14660;49.008;8.390;2022-07-23T12:18:23;8.60;;;7.75;;
27127;SDS011;14660;49.008;8.390;2022-07-23T12:23:20;12.55;;;8.95;;
27127;SDS011;14660;49.008;8.390;2022-07-23T12:25:49;11.60;;;8.10;;
27127;SDS011;14660;49.008;8.390;2022-07-23T12:31:03;8.65;;;7.57;;
27127;SDS011;14660;49.008;8.390;2022-07-23T12:36:17;9.05;;;7.63;;
27127;SDS011;14660;49.008;8.390;2022-07-23T12:38:47;9.15;;;8.15;;
27127;SDS011;14660;49.008;8.390;2022-07-23T12:41:15;8.10;;;7.38;;
27127;SDS011;14660;49.008;8.390;2022-07-23T12:43:43;8.77;;;7.97;;
27127;SDS011;14660;49.008;8.390;2022-07-23T12:48:59;7.35;;;6.65;;
27127;SDS011;14660;49.008;8.390;2022-07-23T12:51:27;8.45;;;7.65;;
27127;SDS011;14660;49.008;8.390;2022-07-23T12:56:44;10.80;;;7.85;;
27127;SDS011;14660;49.008;8.390;2022-07-23T12:59:12;8.30;;;7.50;;
27127;SDS011;14660;49.008;8.390;2022-07-23T13:01:53;9.35;;;8.35;;
27127;SDS011;14660;49.008;8.390;2022-07-23T13:04:22;8.65;;;7.85;;
27127;SDS011;14660;49.008;8.390;2022-07-23T13:09:34;9.75;;;8.40;;
27127;SDS011;14660;49.008;8.390;2022-07-23T13:12:00;7.97;;;7.25;;
27127;SDS011;14660;49.008;8.390;2022-07-23T13:14:28;8.48;;;7.68;;
27127;SDS011;14660;49.008;8.390;2022-07-23T13:16:55;8.85;;;8.05;;
27127;SDS011;14660;49.008;8.390;2022-07-23T13:19:22;8.43;;;7.65;;
27127;SDS011;14660;49.008;8.390;2022-07-23T13:21:50;9.10;;;7.53;;
27127;SDS011;14660;49.008;8.390;2022-07-23T13:24:17;9.30;;;8.40;;
27127;SDS011;14660;49.008;8.390;2022-07-23T13:26:44;8.05;;;7.25;;
27127;SDS011;14660;49.008;8.390;2022-07-23T13:29:12;9.63;;;8.43;;
27127;SDS011;14660;49.008;8.390;2022-07-23T13:31:39;8.07;;;7.38;;
27127;SDS011;14660;49.008;8.390;2022-07-23T13:34:06;9.23;;;8.32;;
27127;SDS011;14660;49.008;8.390;2022-07-23T13:36:34;9.43;;;8.40;;
27127;SDS011;14660;49.008;8.390;2022-07-23T13:39:02;9.68;;;8.45;;
27127;SDS011;14660;49.008;8.390;2022-07-23T13:41:30;8.57;;;7.30;;
27127;SDS011;14660;49.008;8.390;2022-07-23T13:43:58;9.13;;;8.30;;
27127;SDS011;14660;49.008;8.390;2022-07-23T13:46:25;8.38;;;7.57;;
27127;SDS011;14660;49.008;8.390;2022-07-23T13:48:53;8.00;;;7.20;;
27127;SDS011;14660;49.008;8.390;2022-07-23T13:51:20;8.85;;;8.07;;
27127;SDS011;14660;49.008;8.390;2022-07-23T13:53:47;9.45;;;8.55;;
27127;SDS011;14660;49.008;8.390;2022-07-23T13:56:14;8.80;;;8.00;;
27127;SDS011;14660;49.008;8.390;2022-07-23T13:58:40;9.27;;;8.38;;
27127;SDS011;14660;49.008;8.390;2022-07-23T14:01:07;11.60;;;7.57;;
27127;SDS011;14660;49.008;8.390;2022-07-23T14:03:34;8.65;;;7.75;;
27127;SDS011;14660;49.008;8.390;2022-07-23T14:06:01;7.93;;;7.22;;
27127;SDS011;14660;49.008;8.390;2022-07-23T14:08:28;8.75;;;7.63;;
27127;SDS011;14660;49.008;8.390;2022-07-23T14:10:55;7.90;;;7.30;;
27127;SDS011;14660;49.008;8.390;2022-07-23T14:13:22;8.82;;;7.70;;
27127;SDS011;14660;49.008;8.390;2022-07-23T14:15:48;7.97;;;7.30;;
27127;SDS011;14660;49.008;8.390;2022-07-23T14:18:16;9.05;;;8.07;;
27127;SDS011;14660;49.008;8.390;2022-07-23T14:20:43;8.45;;;7.65;;
27127;SDS011;14660;49.008;8.390;2022-07-23T14:23:10;8.68;;;7.88;;
27127;SDS011;14660;49.008;8.390;2022-07-23T14:25:37;8.68;;;7.75;;
27127;SDS011;14660;49.008;8.390;2022-07-23T14:28:04;8.60;;;7.85;;
27127;SDS011;14660;49.008;8.390;2022-07-23T14:30:31;7.22;;;6.60;;
27127;SDS011;14660;49.008;8.390;2022-07-23T14:32:57;7.63;;;7.03;;
27127;SDS011;14660;49.008;8.390;2022-07-23T14:35:24;8.57;;;7.72;;
27127;SDS011;14660;49.008;8.390;2022-07-23T14:37:51;8.15;;;7.25;;
27127;SDS011;14660;49.008;8.390;2022-07-23T14:40:16;8.30;;;7.15;;
27127;SDS011;14660;49.008;8.390;2022-07-23T14:42:43;8.32;;;7.53;;
27127;SDS011;14660;49.008;8.390;2022-07-23T14:45:10;8.82;;;7.82;;
27127;SDS011;14660;49.008;8.390;2022-07-23T14:47:37;8.10;;;7.40;;
27127;SDS011;14660;49.008;8.390;2022-07-23T14:50:04;8.30;;;7.50;;
27127;SDS011;14660;49.008;8.390;2022-07-23T14:52:31;8.80;;;8.10;;
27127;SDS011;14660;49.008;8.390;2022-07-23T14:54:58;9.77;;;8.70;;
27127;SDS011;14660;49.008;8.390;2022-07-23T14:57:25;8.95;;;8.15;;
27127;SDS011;14660;49.008;8.390;2022-07-23T14:59:51;9.02;;;8.23;;
27127;SDS011;14660;49.008;8.390;2022-07-23T15:02:18;14.70;;;9.65;;
27127;SDS011;14660;49.008;8.390;2022-07-23T15:04:45;9.40;;;8.50;;
27127;SDS011;14660;49.008;8.390;2022-07-23T15:07:12;11.35;;;10.25;;
27127;SDS011;14660;49.008;8.390;2022-07-23T15:09:39;9.90;;;9.07;;
27127;SDS011;14660;49.008;8.390;2022-07-23T15:12:06;9.30;;;8.45;;
27127;SDS011;14660;49.008;8.390;2022-07-23T15:14:33;8.38;;;7.57;;
27127;SDS011;14660;49.008;8.390;2022-07-23T15:17:00;10.50;;;8.60;;
27127;SDS011;14660;49.008;8.390;2022-07-23T15:19:26;9.45;;;8.20;;
27127;SDS011;14660;49.008;8.390;2022-07-23T15:21:53;8.98;;;8.20;;
27127;SDS011;14660;49.008;8.390;2022-07-23T15:24:20;9.80;;;8.85;;
27127;SDS011;14660;49.008;8.390;2022-07-23T15:26:46;9.30;;;8.43;;
27127;SDS011;14660;49.008;8.390;2022-07-23T15:29:13;12.95;;;9.88;;
27127;SDS011;14660;49.008;8.390;2022-07-23T15:31:40;10.10;;;9.10;;
27127;SDS011;14660;49.008;8.390;2022-07-23T15:34:07;10.00;;;9.07;;
27127;SDS011;14660;49.008;8.390;2022-07-23T15:36:34;9.85;;;8.57;;
27127;SDS011;14660;49.008;8.390;2022-07-23T15:39:00;10.80;;;9.70;;
27127;SDS011;14660;49.008;8.390;2022-07-23T15:41:28;10.30;;;9.30;;
27127;SDS011;14660;49.008;8.390;2022-07-23T15:43:54;13.32;;;9.90;;
27127;SDS011;14660;49.008;8.390;2022-07-23T15:46:22;11.00;;;9.48;;
27127;SDS011;14660;49.008;8.390;2022-07-23T15:48:49;13.55;;;11.57;;
27127;SDS011;14660;49.008;8.390;2022-07-23T15:51:16;18.70;;;13.77;;
27127;SDS011;14660;49.008;8.390;2022-07-23T15:53:43;15.52;;;11.40;;
27127;SDS011;14660;49.008;8.390;2022-07-23T15:56:10;12.10;;;10.75;;
27127;SDS011;14660;49.008;8.390;2022-07-23T15:58:36;12.88;;;10.20;;
27127;SDS011;14660;49.008;8.390;2022-07-23T16:01:03;12.80;;;10.50;;
27127;SDS011;14660;49.008;8.390;2022-07-23T16:03:33;10.80;;;9.77;;
27127;SDS011;14660;49.008;8.390;2022-07-23T16:06:02;11.88;;;10.75;;
27127;SDS011;14660;49.008;8.390;2022-07-23T16:08:29;13.13;;;10.95;;